Sunday, July 24, 2016, 10:34 AM EDT
Back to Local

KCXY, Harrisburg Capital City

Location: New Cumberland, PA, United States Lat: 40.217
Local Time: 10:34 AM EDT (14:34 GMT) Lon: -76.85
Time Zone: US/Eastern Elev: 347 ft

Show me the last for .
Show Decoded

2016-07-24 09:56 METAR KCXY 241356Z 10003KT 10SM CLR 29/14 A3001 RMK AO2 SLP159 T02890144 =
2016-07-24 08:56 METAR KCXY 241256Z 00000KT 10SM CLR 27/17 A3002 RMK AO2 SLP163 T02670167 =
2016-07-24 07:56 METAR KCXY 241156Z 00000KT 10SM CLR 24/17 A3002 RMK AO2 SLP162 T02440167 10244
                 20189 51015 =
2016-07-24 06:56 METAR KCXY 241056Z 23003KT 10SM CLR 20/16 A3001 RMK AO2 SLP161 T02000161 =
2016-07-24 05:56 METAR KCXY 240956Z AUTO 24003KT 10SM CLR 19/16 A2999 RMK AO2 SLP154 T01940156 =
2016-07-24 04:56 METAR KCXY 240856Z AUTO 23004KT 10SM CLR 19/15 A2997 RMK AO2 SLP148 T01940150
                 53003 =
2016-07-24 03:56 METAR KCXY 240756Z AUTO 24004KT 10SM CLR 20/16 A2997 RMK AO2 SLP146 T02000156 =
2016-07-24 02:56 METAR KCXY 240656Z AUTO 25004KT 10SM CLR 22/17 A2997 RMK AO2 SLP145 T02170167 =
2016-07-24 01:56 METAR KCXY 240556Z AUTO 25005KT 10SM CLR 22/16 A2996 RMK AO2 SLP143 T02220161
                 10350 20222 51014 =
2016-07-24 00:56 METAR KCXY 240456Z AUTO 25005KT 10SM CLR 23/16 A2995 RMK AO2 SLP139 T02330161
                 403720228 =
2016-07-23 23:56 METAR KCXY 240356Z AUTO 21003KT 10SM CLR 24/17 A2994 RMK AO2 SLP136 T02440167 =
2016-07-23 22:56 METAR KCXY 240256Z AUTO 23005KT 10SM CLR 25/16 A2992 RMK AO2 SLP130 T02500161
                 53020 =
2016-07-23 21:56 METAR KCXY 240156Z AUTO 00000KT 10SM CLR 27/16 A2990 RMK AO2 SLP123 T02670156 =
2016-07-23 20:56 METAR KCXY 240056Z AUTO 00000KT 10SM CLR 33/12 A2988 RMK AO2 SLP114 T03280117 =
2016-07-23 19:56 METAR KCXY 232356Z 31008KT 10SM CLR 35/12 A2986 RMK AO2 SLP109 T03500117 10372
                 20344 53009 =
2016-07-23 18:56 METAR KCXY 232256Z 32009KT 10SM CLR 37/13 A2985 RMK AO2 SLP104 T03670128 =
2016-07-23 17:56 METAR KCXY 232156Z 29011KT 10SM CLR 37/14 A2983 RMK AO2 LTG DSNT SE-SW SLP097
                 T03720144 =
2016-07-23 16:56 METAR KCXY 232056Z 28009KT 10SM SCT120 36/18 A2984 RMK AO2 LTG DSNT SE SLP100
                 T03560178 58015 =
2016-07-23 15:56 METAR KCXY 231956Z 34009KT 10SM SCT080 BKN090 36/18 A2985 RMK AO2 SLP107
                 T03610178 =
2016-07-23 14:56 METAR KCXY 231856Z 26009KT 10SM SCT075 SCT090 36/19 A2987 RMK AO2 SLP111
                 T03610194 =
2016-07-23 13:56 METAR KCXY 231756Z 27008G17KT 10SM SCT070 36/18 A2988 RMK AO2 SLP115 T03560183
                 10361 20272 58016 =
2016-07-23 12:56 METAR KCXY 231656Z 31011KT 10SM SCT060 36/19 A2989 RMK AO2 SLP119 T03560189 =
2016-07-23 11:56 METAR KCXY 231556Z 31010KT 10SM FEW049 34/19 A2992 RMK AO2 SLP128 T03440194 =
2016-07-23 10:56 METAR KCXY 231456Z VRB04KT 10SM SCT040 32/21 A2993 RMK AO2 SLP131 T03220211
                 57001 =

Support USWX by starting your Amazon purchase here.